createdAt,value
2022-08-07T00:01:44.121Z,24.11
2022-08-07T00:04:45.391Z,24.11
2022-08-07T00:07:48.653Z,24.04
2022-08-07T00:11:01.268Z,24.04
2022-08-07T00:14:09.023Z,24.15
2022-08-07T00:17:13.957Z,24.07
2022-08-07T00:20:29.521Z,23.98
2022-08-07T00:23:39.520Z,23.83
2022-08-07T00:26:49.565Z,23.88
2022-08-07T00:30:06.280Z,23.93
2022-08-07T00:33:28.921Z,23.82
2022-08-07T00:36:35.914Z,23.78
2022-08-07T00:39:45.034Z,23.79
2022-08-07T00:42:50.261Z,23.58
2022-08-07T00:45:53.143Z,23.69
2022-08-07T00:48:56.882Z,23.74
2022-08-07T00:52:09.917Z,23.76
2022-08-07T00:55:12.970Z,23.75
2022-08-07T00:58:21.395Z,23.77
2022-08-07T01:01:24.666Z,23.78
2022-08-07T01:04:27.465Z,23.67
2022-08-07T01:07:33.381Z,23.73
2022-08-07T01:10:36.442Z,23.72
2022-08-07T01:13:39.833Z,23.70
2022-08-07T01:16:59.279Z,23.51
2022-08-07T01:20:08.325Z,23.56
2022-08-07T01:23:13.883Z,23.64
2022-08-07T01:26:20.904Z,23.48
2022-08-07T01:29:27.889Z,23.56
2022-08-07T01:32:32.386Z,23.43
2022-08-07T01:35:36.922Z,23.60
2022-08-07T01:38:57.408Z,23.31
2022-08-07T01:42:36.919Z,23.43
2022-08-07T01:45:37.050Z,23.52
2022-08-07T01:48:48.010Z,23.51
2022-08-07T01:52:01.619Z,23.31
2022-08-07T01:55:10.249Z,23.17
2022-08-07T01:58:33.226Z,23.14
2022-08-07T02:01:59.830Z,23.18
2022-08-07T02:05:16.069Z,23.00
2022-08-07T02:08:40.568Z,22.99
2022-08-07T02:12:03.038Z,22.89
2022-08-07T02:15:10.307Z,22.78
2022-08-07T02:18:15.340Z,22.83
2022-08-07T02:21:21.891Z,22.83
2022-08-07T02:24:26.337Z,22.84
2022-08-07T02:27:34.748Z,22.58
2022-08-07T02:30:39.592Z,22.43
2022-08-07T02:34:01.750Z,22.31
2022-08-07T02:37:08.912Z,22.35
2022-08-07T02:40:31.023Z,22.38
2022-08-07T02:43:39.629Z,22.47
2022-08-07T02:46:46.545Z,22.22
2022-08-07T02:49:59.029Z,22.26
2022-08-07T02:53:10.972Z,22.23
2022-08-07T02:56:21.737Z,22.40
2022-08-07T02:59:27.639Z,22.22
2022-08-07T03:02:33.947Z,22.02
2022-08-07T03:05:38.099Z,22.03
2022-08-07T03:08:41.942Z,21.96
2022-08-07T03:11:52.315Z,22.05
2022-08-07T03:15:02.370Z,22.03
2022-08-07T03:18:11.575Z,22.01
2022-08-07T03:21:20.917Z,21.80
2022-08-07T03:24:27.908Z,21.73
2022-08-07T03:27:59.015Z,21.68
2022-08-07T03:31:16.519Z,21.66
2022-08-07T03:34:22.547Z,21.83
2022-08-07T03:37:28.109Z,21.73
2022-08-07T03:40:37.236Z,21.73
2022-08-07T03:43:56.839Z,21.85
2022-08-07T03:47:14.066Z,21.78
2022-08-07T03:50:23.098Z,21.67
2022-08-07T03:53:50.248Z,21.59
2022-08-07T03:57:03.488Z,21.78
2022-08-07T04:00:12.186Z,21.77
2022-08-07T04:03:18.475Z,21.62
2022-08-07T04:06:37.119Z,21.72
2022-08-07T04:09:50.333Z,21.54
2022-08-07T04:12:55.359Z,21.64
2022-08-07T04:15:58.710Z,21.79
2022-08-07T04:19:15.179Z,21.60
2022-08-07T04:22:19.644Z,21.58
2022-08-07T04:25:29.317Z,21.54
2022-08-07T04:28:33.386Z,21.44
2022-08-07T04:32:02.994Z,21.56
2022-08-07T04:35:05.791Z,21.49
2022-08-07T04:38:11.550Z,21.79
2022-08-07T04:41:19.028Z,21.61
2022-08-07T04:44:23.859Z,21.62
2022-08-07T04:48:01.133Z,21.48
2022-08-07T04:51:10.232Z,21.66
2022-08-07T04:54:41.302Z,21.62
2022-08-07T04:58:33.682Z,21.68
2022-08-07T05:01:50.569Z,21.85
2022-08-07T05:05:53.799Z,22.05
2022-08-07T05:09:01.143Z,22.16
2022-08-07T05:12:09.115Z,22.00
2022-08-07T05:15:24.090Z,22.33
2022-08-07T05:18:32.055Z,22.27
2022-08-07T05:21:58.941Z,22.39
2022-08-07T05:25:00.896Z,22.38
2022-08-07T05:28:20.443Z,22.55
2022-08-07T05:31:35.366Z,22.71
2022-08-07T05:34:42.016Z,22.95
2022-08-07T05:37:46.460Z,22.67
2022-08-07T05:41:14.644Z,23.08
2022-08-07T05:44:29.385Z,23.21
2022-08-07T05:47:38.210Z,23.02
2022-08-07T05:51:01.142Z,23.04
2022-08-07T05:54:09.216Z,23.54
2022-08-07T05:57:34.618Z,23.58
2022-08-07T06:00:42.068Z,23.43
2022-08-07T06:03:58.705Z,23.65
2022-08-07T06:07:06.095Z,23.66
2022-08-07T06:10:15.421Z,23.85
2022-08-07T06:13:20.890Z,23.58
2022-08-07T06:16:50.544Z,23.43
2022-08-07T06:20:04.068Z,23.57
2022-08-07T06:23:45.754Z,23.83
2022-08-07T06:26:32.658Z,23.48
2022-08-07T06:29:38.990Z,23.74
2022-08-07T06:32:42.220Z,23.68
2022-08-07T06:35:48.130Z,23.74
2022-08-07T06:40:13.667Z,23.76
2022-08-07T06:42:37.572Z,23.91
2022-08-07T06:45:44.299Z,23.91
2022-08-07T06:48:48.357Z,24.01
2022-08-07T06:51:57.933Z,24.25
2022-08-07T06:55:53.803Z,24.49
2022-08-07T07:00:14.842Z,23.85
2022-08-07T07:02:49.236Z,23.94
2022-08-07T07:06:04.026Z,24.06
2022-08-07T07:09:17.492Z,24.24
2022-08-07T07:12:33.552Z,24.20
2022-08-07T07:15:43.157Z,23.92
2022-08-07T07:18:56.251Z,24.46
2022-08-07T07:22:05.490Z,24.47
2022-08-07T07:26:35.786Z,24.79
2022-08-07T07:29:40.117Z,24.57
2022-08-07T07:32:18.813Z,24.31
2022-08-07T07:35:23.133Z,24.99
2022-08-07T07:38:26.470Z,24.85
2022-08-07T07:41:50.743Z,24.13
2022-08-07T07:45:02.569Z,24.13
2022-08-07T07:48:07.711Z,24.25
2022-08-07T07:51:15.618Z,24.06
2022-08-07T07:54:24.983Z,23.60
2022-08-07T07:57:52.163Z,24.32
2022-08-07T08:00:54.797Z,24.64
2022-08-07T08:04:09.436Z,24.47
2022-08-07T08:07:15.604Z,24.37
2022-08-07T08:10:38.146Z,24.56
2022-08-07T08:13:54.294Z,25.41
2022-08-07T08:17:55.497Z,25.53
2022-08-07T08:20:31.970Z,25.86
2022-08-07T08:23:54.433Z,25.97
2022-08-07T08:27:09.408Z,26.42
2022-08-07T08:30:20.134Z,26.91
2022-08-07T08:33:28.941Z,25.75
2022-08-07T08:36:39.578Z,26.00
2022-08-07T08:39:55.144Z,25.92
2022-08-07T08:43:20.011Z,25.55
2022-08-07T08:46:52.034Z,26.04
2022-08-07T08:50:39.323Z,26.16
2022-08-07T08:53:54.917Z,25.58
2022-08-07T08:57:02.344Z,25.70
2022-08-07T09:00:09.081Z,25.99
2022-08-07T09:03:47.598Z,26.28
2022-08-07T09:06:56.475Z,26.58
2022-08-07T09:10:07.995Z,26.33
2022-08-07T09:13:37.735Z,26.06
2022-08-07T09:16:47.529Z,26.61
2022-08-07T09:20:34.632Z,26.31
2022-08-07T09:24:30.645Z,26.07
2022-08-07T09:27:59.482Z,27.11
2022-08-07T09:31:11.847Z,27.17
2022-08-07T09:34:27.673Z,26.56
2022-08-07T09:37:48.199Z,27.54
2022-08-07T09:41:03.553Z,27.60
2022-08-07T09:44:40.477Z,27.38
2022-08-07T09:48:11.693Z,27.75
2022-08-07T09:52:10.152Z,27.79
2022-08-07T09:56:03.151Z,27.99
2022-08-07T09:58:58.879Z,28.34
2022-08-07T10:02:03.133Z,28.42
2022-08-07T10:06:00.390Z,28.32
2022-08-07T10:09:16.151Z,28.74
2022-08-07T10:12:39.609Z,28.40
2022-08-07T10:16:27.069Z,28.32
2022-08-07T10:19:43.510Z,27.86
2022-08-07T10:23:03.100Z,28.02
2022-08-07T10:26:57.939Z,28.42
2022-08-07T10:30:13.217Z,28.76
2022-08-07T10:34:05.769Z,28.34
2022-08-07T10:38:00.640Z,28.90
2022-08-07T10:41:08.175Z,28.85
2022-08-07T10:44:33.893Z,29.31
2022-08-07T10:48:18.320Z,28.64
2022-08-07T10:51:39.740Z,29.41
2022-08-07T10:55:26.784Z,29.61
2022-08-07T10:59:21.552Z,29.64
2022-08-07T11:02:33.597Z,29.79
2022-08-07T11:06:08.692Z,29.72
2022-08-07T11:10:09.641Z,30.14
2022-08-07T11:13:42.493Z,29.97
2022-08-07T11:16:52.790Z,29.98
2022-08-07T11:20:10.945Z,30.37
2022-08-07T11:23:30.857Z,29.51
2022-08-07T11:27:02.073Z,29.22
2022-08-07T11:30:17.544Z,29.78
2022-08-07T11:33:53.893Z,29.98
2022-08-07T11:37:02.785Z,29.95
2022-08-07T11:40:42.172Z,30.37
2022-08-07T11:44:12.145Z,30.21
2022-08-07T11:47:56.517Z,29.63
2022-08-07T11:51:40.959Z,29.96
2022-08-07T11:56:15.605Z,29.74
2022-08-07T12:00:07.635Z,29.38
2022-08-07T12:02:59.905Z,29.70
2022-08-07T12:07:00.329Z,29.91
2022-08-07T12:10:14.662Z,29.76
2022-08-07T12:13:36.665Z,29.84
2022-08-07T12:16:53.821Z,29.64
2022-08-07T12:20:30.625Z,29.75
2022-08-07T12:24:05.425Z,29.83
2022-08-07T12:27:18.623Z,29.34
2022-08-07T12:30:39.194Z,29.74
2022-08-07T12:34:01.389Z,30.17
2022-08-07T12:37:08.146Z,30.21
2022-08-07T12:40:46.700Z,29.60
2022-08-07T12:44:02.451Z,29.84
2022-08-07T12:47:50.234Z,29.32
2022-08-07T12:51:17.109Z,29.57
2022-08-07T12:54:38.387Z,29.27
2022-08-07T12:58:01.328Z,30.29
2022-08-07T13:01:32.071Z,30.35
2022-08-07T13:05:01.673Z,30.13
2022-08-07T13:08:42.881Z,30.14
2022-08-07T13:12:10.082Z,30.11
2022-08-07T13:15:34.590Z,29.96
2022-08-07T13:19:21.922Z,29.94
2022-08-07T13:22:40.753Z,30.45
2022-08-07T13:26:15.928Z,29.72
2022-08-07T13:29:34.679Z,30.46
2022-08-07T13:33:01.613Z,30.35
2022-08-07T13:36:14.656Z,30.13
2022-08-07T13:40:33.882Z,30.67
2022-08-07T13:43:06.781Z,30.58
2022-08-07T13:46:22.060Z,30.58
2022-08-07T13:50:34.653Z,30.23
2022-08-07T13:53:00.815Z,29.82
2022-08-07T13:56:05.669Z,30.51
2022-08-07T13:59:13.163Z,30.51
2022-08-07T14:02:33.421Z,30.31
2022-08-07T14:05:46.354Z,30.74
2022-08-07T14:08:54.570Z,31.09
2022-08-07T14:12:04.733Z,31.28
2022-08-07T14:15:22.425Z,31.07
2022-08-07T14:18:33.271Z,31.02
2022-08-07T14:22:02.406Z,31.19
2022-08-07T14:25:11.850Z,31.54
2022-08-07T14:28:19.183Z,30.94
2022-08-07T14:31:25.364Z,31.48
2022-08-07T14:34:48.881Z,31.47
2022-08-07T14:38:05.528Z,31.30
2022-08-07T14:41:15.134Z,31.05
2022-08-07T14:44:20.153Z,30.69
2022-08-07T14:51:01.969Z,30.77
2022-08-07T14:57:54.728Z,31.71
2022-08-07T15:00:57.942Z,30.98
2022-08-07T15:04:06.585Z,31.30
2022-08-07T15:07:17.724Z,31.20
2022-08-07T15:10:29.919Z,31.64
2022-08-07T15:13:35.837Z,30.82
2022-08-07T15:17:16.727Z,30.93
2022-08-07T15:27:20.618Z,31.47
2022-08-07T15:30:28.572Z,31.57
2022-08-07T15:33:36.320Z,31.49
2022-08-07T15:37:04.132Z,30.91
2022-08-07T15:40:11.280Z,31.13
2022-08-07T15:43:33.330Z,30.74
2022-08-07T15:46:47.371Z,30.83
2022-08-07T15:53:24.816Z,30.81
2022-08-07T15:56:48.232Z,30.59
2022-08-07T15:59:53.218Z,30.37
2022-08-07T16:03:21.877Z,30.51
2022-08-07T16:06:50.559Z,31.04
2022-08-07T16:09:57.385Z,30.69
2022-08-07T16:13:57.644Z,30.26
2022-08-07T16:18:02.918Z,30.85
2022-08-07T16:22:01.323Z,30.31
2022-08-07T16:24:52.845Z,30.89
2022-08-07T16:27:58.640Z,30.57
2022-08-07T16:31:51.668Z,30.24
2022-08-07T16:35:50.693Z,30.28
2022-08-07T16:39:40.649Z,30.47
2022-08-07T16:44:03.674Z,30.37
2022-08-07T16:47:51.439Z,30.11
2022-08-07T16:51:20.882Z,30.06
2022-08-07T16:54:33.040Z,29.97
2022-08-07T16:58:04.433Z,29.72
2022-08-07T17:01:34.353Z,29.58
2022-08-07T17:05:01.163Z,29.88
2022-08-07T17:08:13.341Z,29.71
2022-08-07T17:12:01.866Z,29.59
2022-08-07T17:15:03.557Z,29.25
2022-08-07T17:18:28.965Z,29.11
2022-08-07T17:22:01.840Z,29.02
2022-08-07T17:25:15.180Z,29.16
2022-08-07T17:28:31.306Z,29.07
2022-08-07T17:32:03.045Z,28.87
2022-08-07T17:35:49.874Z,28.76
2022-08-07T17:39:53.014Z,28.57
2022-08-07T17:43:18.453Z,28.62
2022-08-07T17:46:36.060Z,28.44
2022-08-07T17:49:56.391Z,28.46
2022-08-07T17:53:59.829Z,28.40
2022-08-07T17:57:01.753Z,28.40
2022-08-07T18:00:11.759Z,28.08
2022-08-07T18:04:03.900Z,28.13
2022-08-07T18:07:20.456Z,27.94
2022-08-07T18:12:08.053Z,27.98
2022-08-07T18:14:38.282Z,28.01
2022-08-07T18:18:47.543Z,27.75
2022-08-07T18:21:55.196Z,27.66
2022-08-07T18:25:19.202Z,27.59
2022-08-07T18:30:06.641Z,27.58
2022-08-07T18:32:55.115Z,27.33
2022-08-07T18:36:38.669Z,27.36
2022-08-07T18:40:38.827Z,27.30
2022-08-07T18:43:37.263Z,27.21
2022-08-07T18:47:08.115Z,27.12
2022-08-07T18:50:32.814Z,27.07
2022-08-07T18:53:54.046Z,26.97
2022-08-07T18:57:39.945Z,27.01
2022-08-07T19:00:54.391Z,26.99
2022-08-07T19:04:28.181Z,26.72
2022-08-07T19:07:59.700Z,26.56
2022-08-07T19:11:36.475Z,26.33
2022-08-07T19:16:02.937Z,26.43
2022-08-07T19:18:45.166Z,26.31
2022-08-07T19:22:07.542Z,26.30
2022-08-07T19:26:22.738Z,26.10
2022-08-07T19:30:55.224Z,26.13
2022-08-07T19:32:29.111Z,26.04
2022-08-07T19:35:43.715Z,26.10
2022-08-07T19:38:53.138Z,26.09
2022-08-07T19:42:08.398Z,26.11
2022-08-07T19:46:04.951Z,26.04
2022-08-07T19:48:59.525Z,25.88
2022-08-07T19:52:03.823Z,25.89
2022-08-07T19:55:11.016Z,25.78
2022-08-07T19:58:15.823Z,25.55
2022-08-07T20:01:20.490Z,25.63
2022-08-07T20:04:31.843Z,25.57
2022-08-07T20:07:48.173Z,25.36
2022-08-07T20:11:34.036Z,25.53
2022-08-07T20:14:53.623Z,25.48
2022-08-07T20:18:03.240Z,25.33
2022-08-07T20:21:14.406Z,25.38
2022-08-07T20:24:29.912Z,25.40
2022-08-07T20:27:47.717Z,25.29
2022-08-07T20:30:51.696Z,25.24
2022-08-07T20:33:57.394Z,25.32
2022-08-07T20:37:01.172Z,25.33
2022-08-07T20:40:33.480Z,25.34
2022-08-07T20:43:34.849Z,25.11
2022-08-07T20:46:44.138Z,25.11
2022-08-07T20:49:59.231Z,25.08
2022-08-07T20:53:05.753Z,25.07
2022-08-07T20:56:10.561Z,25.09
2022-08-07T21:00:04.673Z,24.96
2022-08-07T21:02:58.135Z,24.76
2022-08-07T21:06:22.313Z,24.72
2022-08-07T21:09:52.484Z,24.78
2022-08-07T21:13:05.804Z,24.61
2022-08-07T21:16:10.753Z,24.72
2022-08-07T21:19:15.713Z,24.60
2022-08-07T21:22:25.543Z,24.70
2022-08-07T21:25:52.232Z,24.68
2022-08-07T21:29:07.268Z,24.65
2022-08-07T21:32:50.963Z,24.60
2022-08-07T21:36:11.862Z,24.65
2022-08-07T21:39:48.596Z,24.57
2022-08-07T21:43:11.235Z,24.42
2022-08-07T21:46:25.175Z,24.32
2022-08-07T21:50:14.719Z,24.26
2022-08-07T21:53:28.772Z,24.43
2022-08-07T21:57:30.798Z,24.43
2022-08-07T22:00:36.361Z,24.49
2022-08-07T22:04:00.509Z,24.27
2022-08-07T22:07:14.693Z,24.23
2022-08-07T22:10:24.508Z,24.22
2022-08-07T22:13:52.739Z,24.16
2022-08-07T22:17:00.252Z,24.11
2022-08-07T22:20:23.438Z,24.02
2022-08-07T22:23:40.469Z,23.91
2022-08-07T22:26:59.057Z,23.87
2022-08-07T22:30:12.846Z,23.70
2022-08-07T22:33:17.843Z,23.69
2022-08-07T22:36:52.551Z,23.68
2022-08-07T22:40:23.148Z,23.81
2022-08-07T22:43:36.175Z,23.72
2022-08-07T22:47:16.863Z,23.65
2022-08-07T22:50:29.024Z,23.46
2022-08-07T22:54:08.305Z,23.35
2022-08-07T22:57:54.564Z,23.14
2022-08-07T23:01:06.305Z,23.12
2022-08-07T23:04:57.068Z,22.98
2022-08-07T23:08:24.400Z,22.94
2022-08-07T23:11:45.998Z,22.86
2022-08-07T23:16:05.434Z,22.99
2022-08-07T23:19:47.825Z,23.01
2022-08-07T23:23:10.399Z,22.87
2022-08-07T23:26:19.732Z,22.88
2022-08-07T23:29:43.758Z,22.98
2022-08-07T23:34:36.540Z,22.90
2022-08-07T23:37:23.774Z,22.68
2022-08-07T23:40:33.169Z,22.63
2022-08-07T23:44:03.723Z,22.57
2022-08-07T23:47:20.087Z,22.19
2022-08-07T23:50:54.448Z,22.20
2022-08-07T23:54:11.564Z,22.23
2022-08-07T23:57:36.339Z,22.15
